createdAt,value
2019-03-31T00:00:39.839Z,73.60
2019-03-31T00:03:08.443Z,73.70
2019-03-31T00:05:37.393Z,74.10
2019-03-31T00:08:06.184Z,74.10
2019-03-31T00:10:34.739Z,74.00
2019-03-31T00:13:03.213Z,74.40
2019-03-31T00:15:31.815Z,74.70
2019-03-31T00:18:00.307Z,74.60
2019-03-31T00:20:28.844Z,74.70
2019-03-31T00:22:57.355Z,74.90
2019-03-31T00:25:25.933Z,75.20
2019-03-31T00:27:54.463Z,75.30
2019-03-31T00:30:23.183Z,75.10
2019-03-31T00:32:51.712Z,74.70
2019-03-31T00:35:20.213Z,74.40
2019-03-31T00:37:48.708Z,74.10
2019-03-31T00:40:17.288Z,73.90
2019-03-31T00:42:45.772Z,74.10
2019-03-31T00:45:14.317Z,74.80
2019-03-31T00:47:42.887Z,75.40
2019-03-31T00:50:11.565Z,75.80
2019-03-31T00:52:59.390Z,75.20
2019-03-31T00:55:27.851Z,75.00
2019-03-31T00:57:56.430Z,74.90
2019-03-31T01:00:38.784Z,74.50
2019-03-31T01:03:07.989Z,74.80
2019-03-31T01:05:37.871Z,74.80
2019-03-31T01:08:06.502Z,75.90
2019-03-31T01:10:35.105Z,76.40
2019-03-31T01:13:03.962Z,76.00
2019-03-31T01:15:32.670Z,75.90
2019-03-31T01:18:01.199Z,75.80
2019-03-31T01:20:29.757Z,76.10
2019-03-31T01:22:58.376Z,78.20
2019-03-31T01:25:26.907Z,79.70
2019-03-31T01:27:55.463Z,80.50
2019-03-31T01:30:24.016Z,81.50
2019-03-31T01:32:53.223Z,82.80
2019-03-31T01:35:22.146Z,83.70
2019-03-31T01:37:50.679Z,84.30
2019-03-31T01:40:19.248Z,85.10
2019-03-31T01:42:47.863Z,85.30
2019-03-31T01:45:16.423Z,86.30
2019-03-31T01:47:44.895Z,87.20
2019-03-31T01:50:14.826Z,88.10
2019-03-31T01:52:43.471Z,90.00
2019-03-31T01:55:12.363Z,88.80
2019-03-31T01:57:40.883Z,88.80
2019-03-31T02:00:11.859Z,90.20
2019-03-31T02:02:40.425Z,90.20
2019-03-31T02:05:09.175Z,90.60
2019-03-31T02:07:38.031Z,90.90
2019-03-31T02:10:07.619Z,91.30
2019-03-31T02:12:36.071Z,91.60
2019-03-31T02:15:06.270Z,92.00
2019-03-31T02:17:34.804Z,92.20
2019-03-31T02:20:03.748Z,92.30
2019-03-31T02:22:32.316Z,92.50
2019-03-31T02:25:01.099Z,92.70
2019-03-31T02:27:29.589Z,93.10
2019-03-31T02:29:58.056Z,93.30
2019-03-31T02:32:26.519Z,93.70
2019-03-31T02:34:55.017Z,93.90
2019-03-31T02:37:23.561Z,94.50
2019-03-31T02:39:52.115Z,94.30
2019-03-31T02:42:20.657Z,94.50
2019-03-31T02:44:49.254Z,94.60
2019-03-31T02:47:17.780Z,94.70
2019-03-31T02:49:46.254Z,94.80
2019-03-31T02:52:14.924Z,94.60
2019-03-31T02:54:43.760Z,94.60
2019-03-31T02:57:13.121Z,94.80
2019-03-31T02:59:42.549Z,94.90
2019-03-31T03:02:13.429Z,95.00
2019-03-31T03:04:41.979Z,95.50
2019-03-31T03:07:12.576Z,96.20
2019-03-31T03:09:43.011Z,96.60
2019-03-31T03:12:13.088Z,96.80
2019-03-31T03:14:43.173Z,96.90
2019-03-31T03:17:11.658Z,97.00
2019-03-31T03:19:40.124Z,97.20
2019-03-31T03:22:08.675Z,97.20
2019-03-31T03:24:37.147Z,97.40
2019-03-31T03:27:05.750Z,97.60
2019-03-31T03:29:34.242Z,98.10
2019-03-31T03:32:02.780Z,98.30
2019-03-31T03:34:31.325Z,98.50
2019-03-31T03:36:59.881Z,98.40
2019-03-31T03:39:28.345Z,98.60
2019-03-31T03:41:56.804Z,98.80
2019-03-31T03:44:25.370Z,99.30
2019-03-31T03:46:54.236Z,99.80
2019-03-31T03:49:22.781Z,99.60
2019-03-31T03:51:51.352Z,99.30
2019-03-31T03:54:19.895Z,99.00
2019-03-31T03:56:48.533Z,98.90
2019-03-31T03:59:17.591Z,99.20
2019-03-31T04:01:46.090Z,99.50
2019-03-31T04:04:14.908Z,99.90
2019-03-31T04:06:43.441Z,99.90
2019-03-31T04:09:11.987Z,99.90
2019-03-31T04:11:40.450Z,99.90
2019-03-31T04:14:09.016Z,99.90
2019-03-31T04:16:37.629Z,99.90
2019-03-31T04:19:06.158Z,99.90
2019-03-31T04:21:34.716Z,99.90
2019-03-31T04:24:03.250Z,99.90
2019-03-31T04:26:31.811Z,99.90
2019-03-31T04:29:00.290Z,99.90
2019-03-31T04:31:28.843Z,99.90
2019-03-31T04:33:57.396Z,99.90
2019-03-31T04:36:25.928Z,99.90
2019-03-31T04:38:54.492Z,99.90
2019-03-31T04:41:22.964Z,99.90
2019-03-31T04:43:51.429Z,99.90
2019-03-31T04:46:19.976Z,99.90
2019-03-31T04:48:48.515Z,99.90
2019-03-31T04:51:17.391Z,99.90
2019-03-31T04:53:45.928Z,99.90
2019-03-31T04:56:14.462Z,99.90
2019-03-31T04:58:42.948Z,99.90
2019-03-31T05:01:11.407Z,99.90
2019-03-31T05:03:39.995Z,99.90
2019-03-31T05:06:08.458Z,99.90
2019-03-31T05:08:36.942Z,99.90
2019-03-31T05:11:06.016Z,99.90
2019-03-31T05:13:34.555Z,99.90
2019-03-31T05:16:03.167Z,99.90
2019-03-31T05:18:31.638Z,99.90
2019-03-31T05:21:00.203Z,99.90
2019-03-31T05:23:28.745Z,99.90
2019-03-31T05:25:57.277Z,99.90
2019-03-31T05:28:25.767Z,99.90
2019-03-31T05:30:54.482Z,99.90
2019-03-31T05:33:22.970Z,99.90
2019-03-31T05:35:51.502Z,99.90
2019-03-31T05:38:19.979Z,99.90
2019-03-31T05:40:48.529Z,99.90
2019-03-31T05:43:17.059Z,99.90
2019-03-31T05:45:45.564Z,99.90
2019-03-31T05:48:14.115Z,99.90
2019-03-31T05:50:42.577Z,99.90
2019-03-31T05:53:11.057Z,99.90
2019-03-31T05:55:39.586Z,99.90
2019-03-31T05:58:08.152Z,99.90
2019-03-31T06:00:41.421Z,99.90
2019-03-31T06:03:10.387Z,99.90
2019-03-31T06:05:38.871Z,99.90
2019-03-31T06:08:07.344Z,99.90
2019-03-31T06:10:35.846Z,99.90
2019-03-31T06:13:04.432Z,99.90
2019-03-31T06:15:32.963Z,99.90
2019-03-31T06:18:01.440Z,99.90
2019-03-31T06:20:29.895Z,99.90
2019-03-31T06:22:58.486Z,99.90
2019-03-31T06:25:27.036Z,99.90
2019-03-31T06:27:55.524Z,99.90
2019-03-31T06:30:23.994Z,99.90
2019-03-31T06:32:55.374Z,99.90
2019-03-31T06:35:22.728Z,99.90
2019-03-31T06:37:51.205Z,99.90
2019-03-31T06:40:19.842Z,99.90
2019-03-31T06:42:48.311Z,99.90
2019-03-31T06:45:16.772Z,99.90
2019-03-31T06:47:45.667Z,99.90
2019-03-31T06:50:14.351Z,99.90
2019-03-31T06:52:42.860Z,99.80
2019-03-31T06:55:11.409Z,99.60
2019-03-31T06:57:40.128Z,99.00
2019-03-31T07:00:09.019Z,98.50
2019-03-31T07:02:37.499Z,98.20
2019-03-31T07:05:07.388Z,97.90
2019-03-31T07:07:35.859Z,97.50
2019-03-31T07:10:06.577Z,97.50
2019-03-31T07:12:35.199Z,97.10
2019-03-31T07:15:06.003Z,96.90
2019-03-31T07:17:34.493Z,96.00
2019-03-31T07:20:03.810Z,95.90
2019-03-31T07:22:32.592Z,95.80
2019-03-31T07:25:01.242Z,95.10
2019-03-31T07:27:29.726Z,95.40
2019-03-31T07:29:58.220Z,94.80
2019-03-31T07:32:26.767Z,94.20
2019-03-31T07:34:55.296Z,94.00
2019-03-31T07:37:23.790Z,93.60
2019-03-31T07:39:52.361Z,92.20
2019-03-31T07:42:20.894Z,92.10
2019-03-31T07:44:49.423Z,91.50
2019-03-31T07:47:18.139Z,91.50
2019-03-31T07:49:46.703Z,90.60
2019-03-31T07:52:15.190Z,90.20
2019-03-31T07:54:43.759Z,89.60
2019-03-31T07:57:12.244Z,89.10
2019-03-31T07:59:40.920Z,88.60
2019-03-31T08:02:10.369Z,87.40
2019-03-31T08:04:38.828Z,88.20
2019-03-31T08:07:07.480Z,86.80
2019-03-31T08:09:36.122Z,86.80
2019-03-31T08:12:04.654Z,86.40
2019-03-31T08:14:33.213Z,85.60
2019-03-31T08:17:01.688Z,85.30
2019-03-31T08:19:30.548Z,84.10
2019-03-31T08:21:59.142Z,83.30
2019-03-31T08:24:27.612Z,83.10
2019-03-31T08:26:56.504Z,81.80
2019-03-31T08:29:24.971Z,79.50
2019-03-31T08:31:53.476Z,79.50
2019-03-31T08:34:21.944Z,78.40
2019-03-31T08:36:50.560Z,77.40
2019-03-31T08:39:19.051Z,75.10
2019-03-31T08:41:47.588Z,74.20
2019-03-31T08:44:16.076Z,75.10
2019-03-31T08:46:44.679Z,74.00
2019-03-31T08:49:13.243Z,73.40
2019-03-31T08:51:41.701Z,73.10
2019-03-31T08:54:10.166Z,70.50
2019-03-31T08:56:38.647Z,68.10
2019-03-31T08:59:07.111Z,69.60
2019-03-31T09:01:35.599Z,68.40
2019-03-31T09:04:04.217Z,68.70
2019-03-31T09:06:32.799Z,68.40
2019-03-31T09:09:01.329Z,68.50
2019-03-31T09:11:29.796Z,67.80
2019-03-31T09:13:58.260Z,68.60
2019-03-31T09:16:27.108Z,67.90
2019-03-31T09:18:55.581Z,65.70
2019-03-31T09:21:24.179Z,66.20
2019-03-31T09:23:52.690Z,65.60
2019-03-31T09:26:21.223Z,66.60
2019-03-31T09:28:49.705Z,64.70
2019-03-31T09:31:18.240Z,64.00
2019-03-31T09:33:46.737Z,63.50
2019-03-31T09:36:16.837Z,64.30
2019-03-31T09:38:48.407Z,65.00
2019-03-31T09:41:16.538Z,63.50
2019-03-31T09:43:45.009Z,62.50
2019-03-31T09:46:13.743Z,61.70
2019-03-31T09:48:42.225Z,59.10
2019-03-31T09:51:10.691Z,60.40
2019-03-31T09:53:39.187Z,59.30
2019-03-31T09:56:07.728Z,58.40
2019-03-31T09:58:36.214Z,60.80
2019-03-31T10:01:07.922Z,58.30
2019-03-31T10:03:34.945Z,58.40
2019-03-31T10:06:10.766Z,61.10
2019-03-31T10:08:33.835Z,58.40
2019-03-31T10:11:03.082Z,57.40
2019-03-31T10:13:31.647Z,57.90
2019-03-31T10:16:00.167Z,56.90
2019-03-31T10:18:28.725Z,55.10
2019-03-31T10:20:57.447Z,56.10
2019-03-31T10:23:26.025Z,55.80
2019-03-31T10:25:54.558Z,55.10
2019-03-31T10:28:23.096Z,55.70
2019-03-31T10:30:51.595Z,56.00
2019-03-31T10:33:20.394Z,56.30
2019-03-31T10:35:49.048Z,53.60
2019-03-31T10:38:17.606Z,52.30
2019-03-31T10:40:46.127Z,53.00
2019-03-31T10:43:14.601Z,52.20
2019-03-31T10:45:43.098Z,52.20
2019-03-31T10:48:20.373Z,51.10
2019-03-31T10:50:41.955Z,50.70
2019-03-31T10:53:10.588Z,51.50
2019-03-31T10:55:39.448Z,48.50
2019-03-31T10:58:08.076Z,49.80
2019-03-31T11:03:18.868Z,49.20
2019-03-31T11:05:47.411Z,48.10
2019-03-31T11:08:15.952Z,47.00
2019-03-31T11:10:44.535Z,48.40
2019-03-31T11:13:13.078Z,47.40
2019-03-31T11:15:41.617Z,46.90
2019-03-31T11:18:10.196Z,46.10
2019-03-31T11:20:39.100Z,44.70
2019-03-31T11:23:09.459Z,45.80
2019-03-31T11:25:37.963Z,44.30
2019-03-31T11:28:06.839Z,43.40
2019-03-31T11:30:35.312Z,43.10
2019-03-31T11:33:07.288Z,42.80
2019-03-31T11:35:34.044Z,40.90
2019-03-31T11:38:02.509Z,40.70
2019-03-31T11:40:31.013Z,41.10
2019-03-31T11:42:59.546Z,43.30
2019-03-31T11:45:28.090Z,40.50
2019-03-31T11:47:56.655Z,38.80
2019-03-31T11:50:25.183Z,39.20
2019-03-31T11:52:53.649Z,40.40
2019-03-31T11:55:22.395Z,38.00
2019-03-31T11:57:50.942Z,35.30
2019-03-31T12:00:21.296Z,33.60
2019-03-31T12:02:49.920Z,35.10
2019-03-31T12:05:18.553Z,35.00
2019-03-31T12:07:47.574Z,34.10
2019-03-31T12:10:19.517Z,32.30
2019-03-31T12:12:46.320Z,33.20
2019-03-31T12:15:14.922Z,32.10
2019-03-31T12:17:43.484Z,30.50
2019-03-31T12:20:12.293Z,29.60
2019-03-31T12:22:40.751Z,31.10
2019-03-31T12:25:10.053Z,29.10
2019-03-31T12:27:38.584Z,27.60
2019-03-31T12:30:08.199Z,26.70
2019-03-31T12:32:38.514Z,27.80
2019-03-31T12:35:08.500Z,28.50
2019-03-31T12:37:42.845Z,27.60
2019-03-31T12:40:09.333Z,27.70
2019-03-31T12:42:38.067Z,27.20
2019-03-31T12:45:07.123Z,26.20
2019-03-31T12:47:35.721Z,26.00
2019-03-31T12:50:06.290Z,26.60
2019-03-31T12:52:46.061Z,27.20
2019-03-31T12:55:06.113Z,27.40
2019-03-31T12:57:34.586Z,27.30
2019-03-31T13:00:03.699Z,25.90
2019-03-31T13:02:32.275Z,25.10
2019-03-31T13:05:00.740Z,25.70
2019-03-31T13:07:29.274Z,26.30
2019-03-31T13:09:57.838Z,25.80
2019-03-31T13:12:26.369Z,25.50
2019-03-31T13:14:54.840Z,25.70
2019-03-31T13:17:23.403Z,25.60
2019-03-31T13:19:51.867Z,25.20
2019-03-31T13:22:20.602Z,25.60
2019-03-31T13:24:49.156Z,25.40
2019-03-31T13:27:17.688Z,24.30
2019-03-31T13:29:46.165Z,24.70
2019-03-31T13:32:14.735Z,23.90
2019-03-31T13:34:43.535Z,23.70
2019-03-31T13:37:11.991Z,23.30
2019-03-31T13:39:40.492Z,23.20
2019-03-31T13:42:09.050Z,23.60
2019-03-31T13:44:37.519Z,23.00
2019-03-31T13:47:06.074Z,24.00
2019-03-31T13:49:34.534Z,25.00
2019-03-31T13:52:03.001Z,24.30
2019-03-31T13:54:31.490Z,23.50
2019-03-31T13:57:00.241Z,23.30
2019-03-31T13:59:28.774Z,24.30
2019-03-31T14:02:00.010Z,25.10
2019-03-31T14:04:27.644Z,24.70
2019-03-31T14:06:56.300Z,26.50
2019-03-31T14:09:24.780Z,25.70
2019-03-31T14:11:53.636Z,26.30
2019-03-31T14:14:22.159Z,25.50
2019-03-31T14:16:50.617Z,25.30
2019-03-31T14:19:19.249Z,25.80
2019-03-31T14:21:47.703Z,25.90
2019-03-31T14:24:16.276Z,25.80
2019-03-31T14:26:47.715Z,26.60
2019-03-31T14:29:15.882Z,26.10
2019-03-31T14:31:44.803Z,25.80
2019-03-31T14:34:13.748Z,26.30
2019-03-31T14:36:42.640Z,27.00
2019-03-31T14:39:11.200Z,27.60
2019-03-31T14:41:39.738Z,27.50
2019-03-31T14:44:08.271Z,27.40
2019-03-31T14:46:37.271Z,28.10
2019-03-31T14:49:05.744Z,29.00
2019-03-31T14:51:34.283Z,28.80
2019-03-31T14:54:03.039Z,27.10
2019-03-31T14:56:31.666Z,26.50
2019-03-31T14:59:00.520Z,25.90
2019-03-31T15:01:29.352Z,24.80
2019-03-31T15:03:57.807Z,25.00
2019-03-31T15:06:26.331Z,23.30
2019-03-31T15:08:55.090Z,23.10
2019-03-31T15:11:23.631Z,23.00
2019-03-31T15:13:52.303Z,23.20
2019-03-31T15:16:20.862Z,23.70
2019-03-31T15:18:49.407Z,24.40
2019-03-31T15:21:17.936Z,24.80
2019-03-31T15:23:46.420Z,26.20
2019-03-31T15:26:15.390Z,25.90
2019-03-31T15:28:45.502Z,26.60
2019-03-31T15:31:14.290Z,26.50
2019-03-31T15:33:42.833Z,27.00
2019-03-31T15:36:11.285Z,25.70
2019-03-31T15:38:39.766Z,24.90
2019-03-31T15:41:20.574Z,23.70
2019-03-31T15:43:38.403Z,23.60
2019-03-31T15:46:06.883Z,23.40
2019-03-31T15:48:35.349Z,23.90
2019-03-31T15:51:03.955Z,22.90
2019-03-31T15:53:32.449Z,22.40
2019-03-31T15:56:00.987Z,21.80
2019-03-31T15:58:29.521Z,22.40
2019-03-31T16:00:58.142Z,22.10
2019-03-31T16:03:26.747Z,21.90
2019-03-31T16:05:55.199Z,21.70
2019-03-31T16:08:23.683Z,22.10
2019-03-31T16:10:52.154Z,22.30
2019-03-31T16:13:20.607Z,22.50
2019-03-31T16:15:49.170Z,22.50
2019-03-31T16:18:17.639Z,22.20
2019-03-31T16:20:46.162Z,23.20
2019-03-31T16:23:14.700Z,23.40
2019-03-31T16:25:44.875Z,23.80
2019-03-31T16:28:13.351Z,23.90
2019-03-31T16:30:41.981Z,24.10
2019-03-31T16:33:10.602Z,23.70
2019-03-31T16:35:39.270Z,23.80
2019-03-31T16:38:07.768Z,24.20
2019-03-31T16:40:36.350Z,24.00
2019-03-31T16:43:05.043Z,23.70
2019-03-31T16:45:33.639Z,23.90
2019-03-31T16:48:02.303Z,24.20
2019-03-31T16:50:31.168Z,24.60
2019-03-31T16:52:59.793Z,24.40
2019-03-31T16:55:28.659Z,24.80
2019-03-31T16:57:57.124Z,24.80
2019-03-31T17:00:25.696Z,25.40
2019-03-31T17:02:55.791Z,25.50
2019-03-31T17:05:24.325Z,26.00
2019-03-31T17:07:52.953Z,26.20
2019-03-31T17:10:21.410Z,26.40
2019-03-31T17:12:49.936Z,26.40
2019-03-31T17:15:18.576Z,27.10
2019-03-31T17:17:47.839Z,27.60
2019-03-31T17:20:16.714Z,28.00
2019-03-31T17:22:45.351Z,28.60
2019-03-31T17:25:14.062Z,29.00
2019-03-31T17:27:42.698Z,29.20
2019-03-31T17:30:11.586Z,30.20
2019-03-31T17:32:40.269Z,30.70
2019-03-31T17:35:08.806Z,31.60
2019-03-31T17:37:37.451Z,32.00
2019-03-31T17:40:07.314Z,32.10
2019-03-31T17:42:35.881Z,32.70
2019-03-31T17:45:06.322Z,32.90
2019-03-31T17:47:35.192Z,33.10
2019-03-31T17:50:05.386Z,33.60
2019-03-31T17:52:33.996Z,34.00
2019-03-31T17:55:02.594Z,35.00
2019-03-31T17:57:31.127Z,34.30
2019-03-31T17:59:59.696Z,34.80
2019-03-31T18:02:28.209Z,35.30
2019-03-31T18:04:56.727Z,35.30
2019-03-31T18:07:25.489Z,35.50
2019-03-31T18:09:54.019Z,35.40
2019-03-31T18:12:22.617Z,35.70
2019-03-31T18:14:51.233Z,35.90
2019-03-31T18:17:19.687Z,36.30
2019-03-31T18:19:48.148Z,36.50
2019-03-31T18:22:17.316Z,36.50
2019-03-31T18:24:45.855Z,36.90
2019-03-31T18:27:14.316Z,36.90
2019-03-31T18:29:42.844Z,36.80
2019-03-31T18:32:11.402Z,36.90
2019-03-31T18:34:39.917Z,37.10
2019-03-31T18:37:08.404Z,37.40
2019-03-31T18:39:36.975Z,37.50
2019-03-31T18:42:05.608Z,37.60
2019-03-31T18:44:34.093Z,37.70
2019-03-31T18:47:02.555Z,37.60
2019-03-31T18:49:31.102Z,37.30
2019-03-31T18:51:59.669Z,37.60
2019-03-31T18:54:36.031Z,37.90
2019-03-31T18:57:09.381Z,37.80
2019-03-31T18:59:42.615Z,37.90
2019-03-31T19:02:12.731Z,38.00
2019-03-31T19:04:42.860Z,37.80
2019-03-31T19:07:29.195Z,38.40
2019-03-31T19:10:02.687Z,38.60
2019-03-31T19:12:32.789Z,38.80
2019-03-31T19:15:06.125Z,39.20
2019-03-31T19:17:42.505Z,39.50
2019-03-31T19:20:15.432Z,39.80
2019-03-31T19:22:54.423Z,39.90
2019-03-31T19:25:40.527Z,40.10
2019-03-31T19:28:22.434Z,40.20
2019-03-31T19:31:01.378Z,40.40
2019-03-31T19:33:43.560Z,40.60
2019-03-31T19:36:29.624Z,41.00
2019-03-31T19:39:16.291Z,41.30
2019-03-31T19:41:52.443Z,41.50
2019-03-31T19:44:22.545Z,41.70
2019-03-31T19:46:52.762Z,42.10
2019-03-31T19:49:25.667Z,42.10
2019-03-31T19:52:13.684Z,42.70
2019-03-31T19:54:49.751Z,42.70
2019-03-31T19:57:25.709Z,42.60
2019-03-31T19:59:55.818Z,43.30
2019-03-31T20:02:25.987Z,43.00
2019-03-31T20:07:42.669Z,43.50
2019-03-31T20:10:14.466Z,43.80
2019-03-31T20:13:01.137Z,44.20
2019-03-31T20:15:31.716Z,44.40
2019-03-31T20:18:16.822Z,44.60
2019-03-31T20:20:50.296Z,45.20
2019-03-31T20:23:23.111Z,45.60
2019-03-31T20:25:53.574Z,46.80
2019-03-31T20:28:35.771Z,48.00
2019-03-31T20:31:11.814Z,48.80
2019-03-31T20:33:48.102Z,49.40
2019-03-31T20:36:18.289Z,49.90
2019-03-31T20:38:55.606Z,50.00
2019-03-31T20:41:28.973Z,50.20
2019-03-31T20:43:57.512Z,50.60
2019-03-31T20:46:26.067Z,51.10
2019-03-31T20:48:54.681Z,50.90
2019-03-31T20:51:23.231Z,51.00
2019-03-31T20:53:51.721Z,51.50
2019-03-31T20:56:20.256Z,51.30
2019-03-31T20:58:48.725Z,51.10
2019-03-31T21:01:17.230Z,51.70
2019-03-31T21:03:45.764Z,51.60
2019-03-31T21:06:14.303Z,52.40
2019-03-31T21:08:42.894Z,52.80
2019-03-31T21:11:11.463Z,53.70
2019-03-31T21:13:40.107Z,53.80
2019-03-31T21:16:08.595Z,53.60
2019-03-31T21:18:37.152Z,54.30
2019-03-31T21:21:05.699Z,53.80
2019-03-31T21:23:34.280Z,54.30
2019-03-31T21:26:02.761Z,54.70
2019-03-31T21:28:31.218Z,54.10
2019-03-31T21:30:59.806Z,53.60
2019-03-31T21:33:28.359Z,53.50
2019-03-31T21:35:56.824Z,54.00
2019-03-31T21:38:25.383Z,54.30
2019-03-31T21:40:53.860Z,55.10
2019-03-31T21:43:22.775Z,55.60
2019-03-31T21:45:51.352Z,55.80
2019-03-31T21:48:19.901Z,56.00
2019-03-31T21:50:48.444Z,56.20
2019-03-31T21:53:16.931Z,56.60
2019-03-31T21:55:45.411Z,56.50
2019-03-31T21:58:14.162Z,57.30
2019-03-31T22:00:50.226Z,57.90
2019-03-31T22:03:19.138Z,58.30
2019-03-31T22:05:47.819Z,58.70
2019-03-31T22:08:16.387Z,59.30
2019-03-31T22:10:45.061Z,59.60
2019-03-31T22:13:13.530Z,60.00
2019-03-31T22:15:42.030Z,60.90
2019-03-31T22:18:10.566Z,61.90
2019-03-31T22:20:39.107Z,62.50
2019-03-31T22:23:07.620Z,62.90
2019-03-31T22:25:36.195Z,63.60
2019-03-31T22:28:04.862Z,63.90
2019-03-31T22:30:35.098Z,65.00
2019-03-31T22:33:03.908Z,66.10
2019-03-31T22:35:32.387Z,67.40
2019-03-31T22:38:02.614Z,68.50
2019-03-31T22:40:31.224Z,69.20
2019-03-31T22:42:59.865Z,69.10
2019-03-31T22:45:28.423Z,70.10
2019-03-31T22:47:56.960Z,70.00
2019-03-31T22:50:25.491Z,70.90
2019-03-31T22:52:54.003Z,72.30
2019-03-31T22:55:22.536Z,72.50
2019-03-31T22:57:51.079Z,73.50
2019-03-31T23:00:23.863Z,74.60
2019-03-31T23:02:52.326Z,75.40
2019-03-31T23:05:21.315Z,76.60
2019-03-31T23:07:49.807Z,78.20
2019-03-31T23:10:18.282Z,79.60
2019-03-31T23:12:47.102Z,81.00
2019-03-31T23:15:15.722Z,82.00
2019-03-31T23:17:44.184Z,83.70
2019-03-31T23:20:13.041Z,85.00
2019-03-31T23:22:41.539Z,86.20
2019-03-31T23:25:10.069Z,88.20
2019-03-31T23:27:38.607Z,89.80
2019-03-31T23:30:10.091Z,90.50
2019-03-31T23:32:38.690Z,91.30
2019-03-31T23:35:08.374Z,92.20
2019-03-31T23:37:36.939Z,92.50
2019-03-31T23:40:06.025Z,93.70
2019-03-31T23:42:34.568Z,94.30
2019-03-31T23:45:03.276Z,94.90
2019-03-31T23:47:31.734Z,95.80
2019-03-31T23:50:00.363Z,96.80
2019-03-31T23:52:28.876Z,97.20
2019-03-31T23:54:57.339Z,97.50
2019-03-31T23:57:41.554Z,98.40
